»·PEaware :: SNIPER91 KLSV-KLSV

SNIPER91 :: KLSV-KLSV

FLIGHT INFORMATION

Flight Status: Arrived
Operator: Unknown
More flights by this operator :: More flights under this callsign
Pilot: Anthony C. (15741)
Aircraft: NORTHROP F-5 FREEDON FIGHTER
(F5)
More flights by this aircraft type
Origin: KLSV Nellis AFB
United States
Destination: KLSV Nellis AFB
United States
More flights between these airports :: More routes between these airports
Route: +DREAM4 JUNNO
File this flight plan on PilotEdge
Remarks: CLNC LIMIT JUUNO
Altitude:
(Current/Filed)
17,000ft
Speed:
(Current/Filed)
320kts
Departed: 20-Jun-17 09:51 PM
Arrived: 20-Jun-17 10:22 PM
Distance/Time
Traveled:
1nm/0:31
Distance/Time
To Go:
Arrived

Flight Plot

Page will automatically refresh every two minutes.

Flight plan parsing failed; only flown route is shown


Map Options




Map Legend


Flown Route
Filed Route
Departure Airport
Arrival Airport
Navaid (VOR, NDB)
Fix

Horizontal Profiles

Position Reports

Time Latitude Longitude Heading Altitude Ground
Speed
20-Jun-17 21:37 36.232358 -115.022536 94 1849ft 0kts
20-Jun-17 21:38 36.232358 -115.022536 94 1849ft 0kts
20-Jun-17 21:39 36.232358 -115.022536 94 1849ft 0kts
20-Jun-17 21:40 36.232358 -115.022536 94 1849ft 0kts
20-Jun-17 21:41 36.232358 -115.022536 94 1849ft 0kts
20-Jun-17 21:42 36.232358 -115.022536 94 1849ft 0kts
20-Jun-17 21:43 36.232358 -115.022536 94 1849ft 0kts
20-Jun-17 21:44 36.232358 -115.022536 94 1849ft 0kts
20-Jun-17 21:45 36.231955 -115.022674 240 1849ft 12kts
20-Jun-17 21:46 36.231858 -115.022894 241 1849ft 0kts
20-Jun-17 21:47 36.231858 -115.022894 241 1849ft 0kts
20-Jun-17 21:48 36.231858 -115.022894 241 1849ft 0kts
20-Jun-17 21:49 36.230651 -115.027340 268 1848ft 13kts
20-Jun-17 21:50 36.229488 -115.033014 220 1847ft 23kts
20-Jun-17 21:51 36.224633 -115.038269 220 1847ft 22kts
20-Jun-17 21:52 36.224347 -115.043245 325 1846ft 4kts
20-Jun-17 21:53 36.225378 -115.043671 39 1846ft 0kts
20-Jun-17 21:54 36.261329 -115.004246 40 2700ft 310kts
20-Jun-17 21:55 36.331346 -114.922176 42 6528ft 374kts
20-Jun-17 21:56 36.417547 -114.855225 13 11000ft 390kts
20-Jun-17 21:57 36.528891 -114.819740 12 14559ft 423kts
20-Jun-17 21:58 36.647117 -114.800639 351 17828ft 450kts
20-Jun-17 21:59 36.779182 -114.840041 340 17352ft 516kts
20-Jun-17 22:00 36.848555 -114.981254 280 17587ft 551kts
20-Jun-17 22:01 36.896375 -115.152647 336 5699ft 634kts
20-Jun-17 22:02 37.018219 -115.232868 6 3396ft 532kts
20-Jun-17 22:03 37.003933 -115.212960 337 4595ft 284kts
20-Jun-17 22:04 37.010638 -115.184568 193 3793ft 404kts
20-Jun-17 22:05 37.020718 -115.199457 21 3391ft 296kts
20-Jun-17 22:06 37.001195 -115.168588 211 5119ft 431kts
20-Jun-17 22:07 37.005131 -115.219750 147 5131ft 97kts
20-Jun-17 22:08 37.028940 -115.193083 342 3475ft 490kts
20-Jun-17 22:09 36.987070 -115.199309 173 5715ft 324kts
20-Jun-17 22:10 37.036899 -115.218615 7 5016ft 382kts
20-Jun-17 22:11 36.999460 -115.215982 153 3669ft 439kts
20-Jun-17 22:12 37.054107 -115.192092 307 6620ft 445kts
20-Jun-17 22:13 37.003118 -115.211577 15 3515ft 374kts
20-Jun-17 22:14 37.035508 -115.086054 149 11458ft 436kts
20-Jun-17 22:15 36.912865 -115.047727 168 11440ft 453kts
20-Jun-17 22:16 36.781453 -115.017955 168 10982ft 509kts
20-Jun-17 22:17 36.640518 -114.984821 168 11493ft 511kts
20-Jun-17 22:18 36.511713 -114.950280 164 10378ft 463kts
20-Jun-17 22:19 36.391971 -114.912938 177 6845ft 441kts
20-Jun-17 22:20 36.295352 -114.971997 219 3410ft 341kts
20-Jun-17 22:21 36.249876 -115.043660 342 3244ft 288kts
20-Jun-17 22:22 36.252311 -115.018921 220 1948ft 241kts
20-Jun-17 22:23 36.264852 -115.038728 45 4006ft 275kts
20-Jun-17 22:24 36.241262 -115.030994 222 1855ft 143kts
20-Jun-17 22:25 36.232943 -115.036626 103 1848ft 11kts
20-Jun-17 22:26 36.230745 -115.031419 85 1847ft 16kts
20-Jun-17 22:27 36.231921 -115.023972 60 1849ft 22kts
20-Jun-17 22:28 36.232372 -115.022644 96 1849ft 0kts

Navigation Log

Ident Type
Flight plan parsing failed, navigation log unavailable